sensor_id;sensor_type;location;lat;lon;timestamp;P1;durP1;ratioP1;P2;durP2;ratioP2
36355;SDS011;22384;54.302;18.596;2022-12-07T00:01:34;28.23;;;12.68;;
36355;SDS011;22384;54.302;18.596;2022-12-07T00:04:02;25.75;;;13.02;;
36355;SDS011;22384;54.302;18.596;2022-12-07T00:06:32;26.38;;;13.43;;
36355;SDS011;22384;54.302;18.596;2022-12-07T00:08:59;21.92;;;11.65;;
36355;SDS011;22384;54.302;18.596;2022-12-07T00:11:25;20.58;;;12.05;;
36355;SDS011;22384;54.302;18.596;2022-12-07T00:13:52;23.77;;;13.00;;
36355;SDS011;22384;54.302;18.596;2022-12-07T00:16:20;22.23;;;11.85;;
36355;SDS011;22384;54.302;18.596;2022-12-07T00:18:46;22.67;;;12.02;;
36355;SDS011;22384;54.302;18.596;2022-12-07T00:21:13;22.63;;;12.50;;
36355;SDS011;22384;54.302;18.596;2022-12-07T00:23:40;25.58;;;12.40;;
36355;SDS011;22384;54.302;18.596;2022-12-07T00:26:09;24.38;;;13.13;;
36355;SDS011;22384;54.302;18.596;2022-12-07T00:28:35;21.35;;;12.32;;
36355;SDS011;22384;54.302;18.596;2022-12-07T00:31:03;22.90;;;12.18;;
36355;SDS011;22384;54.302;18.596;2022-12-07T00:33:31;21.75;;;12.85;;
36355;SDS011;22384;54.302;18.596;2022-12-07T00:35:57;26.30;;;13.75;;
36355;SDS011;22384;54.302;18.596;2022-12-07T00:38:27;19.95;;;11.35;;
36355;SDS011;22384;54.302;18.596;2022-12-07T00:40:55;22.33;;;11.45;;
36355;SDS011;22384;54.302;18.596;2022-12-07T00:43:21;23.00;;;12.07;;
36355;SDS011;22384;54.302;18.596;2022-12-07T00:45:48;24.13;;;12.05;;
36355;SDS011;22384;54.302;18.596;2022-12-07T00:48:15;21.42;;;11.20;;
36355;SDS011;22384;54.302;18.596;2022-12-07T00:50:42;20.80;;;11.13;;
36355;SDS011;22384;54.302;18.596;2022-12-07T00:53:10;22.65;;;11.13;;
36355;SDS011;22384;54.302;18.596;2022-12-07T00:55:36;21.23;;;10.25;;
36355;SDS011;22384;54.302;18.596;2022-12-07T00:58:03;22.70;;;11.50;;
36355;SDS011;22384;54.302;18.596;2022-12-07T01:00:30;22.25;;;11.65;;
36355;SDS011;22384;54.302;18.596;2022-12-07T01:02:56;22.15;;;11.00;;
36355;SDS011;22384;54.302;18.596;2022-12-07T01:05:22;23.25;;;11.02;;
36355;SDS011;22384;54.302;18.596;2022-12-07T01:07:48;23.55;;;11.18;;
36355;SDS011;22384;54.302;18.596;2022-12-07T01:10:14;22.52;;;10.80;;
36355;SDS011;22384;54.302;18.596;2022-12-07T01:12:41;19.50;;;10.30;;
36355;SDS011;22384;54.302;18.596;2022-12-07T01:15:08;24.48;;;10.88;;
36355;SDS011;22384;54.302;18.596;2022-12-07T01:17:34;21.23;;;11.02;;
36355;SDS011;22384;54.302;18.596;2022-12-07T01:20:01;24.05;;;10.20;;
36355;SDS011;22384;54.302;18.596;2022-12-07T01:22:28;21.25;;;10.63;;
36355;SDS011;22384;54.302;18.596;2022-12-07T01:24:55;20.10;;;10.25;;
36355;SDS011;22384;54.302;18.596;2022-12-07T01:27:21;19.25;;;10.52;;
36355;SDS011;22384;54.302;18.596;2022-12-07T01:29:58;21.17;;;10.70;;
36355;SDS011;22384;54.302;18.596;2022-12-07T01:32:24;19.60;;;9.73;;
36355;SDS011;22384;54.302;18.596;2022-12-07T01:34:50;22.23;;;10.88;;
36355;SDS011;22384;54.302;18.596;2022-12-07T01:37:16;21.40;;;10.15;;
36355;SDS011;22384;54.302;18.596;2022-12-07T01:39:42;22.20;;;11.35;;
36355;SDS011;22384;54.302;18.596;2022-12-07T01:42:12;22.38;;;10.95;;
36355;SDS011;22384;54.302;18.596;2022-12-07T01:47:22;24.65;;;10.73;;
36355;SDS011;22384;54.302;18.596;2022-12-07T01:49:49;22.20;;;10.68;;
36355;SDS011;22384;54.302;18.596;2022-12-07T01:52:33;25.85;;;12.13;;
36355;SDS011;22384;54.302;18.596;2022-12-07T01:55:00;22.88;;;11.20;;
36355;SDS011;22384;54.302;18.596;2022-12-07T01:57:28;22.77;;;11.20;;
36355;SDS011;22384;54.302;18.596;2022-12-07T01:59:55;20.23;;;10.82;;
36355;SDS011;22384;54.302;18.596;2022-12-07T02:02:23;22.05;;;11.55;;
36355;SDS011;22384;54.302;18.596;2022-12-07T02:04:51;23.25;;;11.70;;
36355;SDS011;22384;54.302;18.596;2022-12-07T02:07:17;23.88;;;11.43;;
36355;SDS011;22384;54.302;18.596;2022-12-07T02:09:44;26.20;;;12.00;;
36355;SDS011;22384;54.302;18.596;2022-12-07T02:12:11;25.10;;;11.50;;
36355;SDS011;22384;54.302;18.596;2022-12-07T02:14:37;24.40;;;11.98;;
36355;SDS011;22384;54.302;18.596;2022-12-07T02:25:08;20.33;;;10.70;;
36355;SDS011;22384;54.302;18.596;2022-12-07T02:27:43;22.42;;;10.40;;
36355;SDS011;22384;54.302;18.596;2022-12-07T02:30:12;23.48;;;11.30;;
36355;SDS011;22384;54.302;18.596;2022-12-07T02:32:44;23.08;;;10.25;;
36355;SDS011;22384;54.302;18.596;2022-12-07T02:35:17;20.17;;;11.05;;
36355;SDS011;22384;54.302;18.596;2022-12-07T02:37:57;22.50;;;10.10;;
36355;SDS011;22384;54.302;18.596;2022-12-07T02:40:35;21.70;;;10.52;;
36355;SDS011;22384;54.302;18.596;2022-12-07T02:45:36;20.95;;;10.18;;
36355;SDS011;22384;54.302;18.596;2022-12-07T02:48:04;18.83;;;9.68;;
36355;SDS011;22384;54.302;18.596;2022-12-07T02:50:32;25.55;;;10.95;;
36355;SDS011;22384;54.302;18.596;2022-12-07T02:52:58;20.52;;;9.85;;
36355;SDS011;22384;54.302;18.596;2022-12-07T02:55:31;22.80;;;10.63;;
36355;SDS011;22384;54.302;18.596;2022-12-07T03:00:43;22.10;;;10.20;;
36355;SDS011;22384;54.302;18.596;2022-12-07T03:03:11;23.23;;;10.80;;
36355;SDS011;22384;54.302;18.596;2022-12-07T03:11:13;21.40;;;9.32;;
36355;SDS011;22384;54.302;18.596;2022-12-07T03:16:28;19.42;;;8.88;;
36355;SDS011;22384;54.302;18.596;2022-12-07T03:19:00;18.80;;;9.35;;
36355;SDS011;22384;54.302;18.596;2022-12-07T03:21:31;18.58;;;8.95;;
36355;SDS011;22384;54.302;18.596;2022-12-07T03:23:58;19.23;;;9.32;;
36355;SDS011;22384;54.302;18.596;2022-12-07T03:26:31;19.10;;;8.32;;
36355;SDS011;22384;54.302;18.596;2022-12-07T03:28:58;17.17;;;8.40;;
36355;SDS011;22384;54.302;18.596;2022-12-07T03:31:28;14.98;;;8.18;;
36355;SDS011;22384;54.302;18.596;2022-12-07T03:41:42;12.93;;;6.53;;
36355;SDS011;22384;54.302;18.596;2022-12-07T03:44:08;12.85;;;7.15;;
36355;SDS011;22384;54.302;18.596;2022-12-07T03:49:08;11.75;;;6.43;;
36355;SDS011;22384;54.302;18.596;2022-12-07T03:51:40;13.95;;;7.07;;
36355;SDS011;22384;54.302;18.596;2022-12-07T03:54:10;15.75;;;7.82;;
36355;SDS011;22384;54.302;18.596;2022-12-07T03:56:41;13.52;;;7.70;;
36355;SDS011;22384;54.302;18.596;2022-12-07T03:59:10;14.10;;;7.22;;
36355;SDS011;22384;54.302;18.596;2022-12-07T04:01:37;14.68;;;7.20;;
36355;SDS011;22384;54.302;18.596;2022-12-07T04:04:03;11.38;;;6.22;;
36355;SDS011;22384;54.302;18.596;2022-12-07T04:06:29;13.50;;;6.55;;
36355;SDS011;22384;54.302;18.596;2022-12-07T04:08:55;11.38;;;6.35;;
36355;SDS011;22384;54.302;18.596;2022-12-07T04:11:21;13.38;;;6.80;;
36355;SDS011;22384;54.302;18.596;2022-12-07T04:13:48;11.25;;;6.70;;
36355;SDS011;22384;54.302;18.596;2022-12-07T04:16:32;10.02;;;5.90;;
36355;SDS011;22384;54.302;18.596;2022-12-07T04:18:59;11.70;;;6.80;;
36355;SDS011;22384;54.302;18.596;2022-12-07T04:21:25;11.57;;;6.55;;
36355;SDS011;22384;54.302;18.596;2022-12-07T04:23:51;12.23;;;5.72;;
36355;SDS011;22384;54.302;18.596;2022-12-07T04:26:17;11.40;;;6.20;;
36355;SDS011;22384;54.302;18.596;2022-12-07T04:28:43;12.10;;;7.10;;
36355;SDS011;22384;54.302;18.596;2022-12-07T04:31:09;13.50;;;5.85;;
36355;SDS011;22384;54.302;18.596;2022-12-07T04:33:35;10.43;;;6.05;;
36355;SDS011;22384;54.302;18.596;2022-12-07T04:36:02;10.25;;;6.18;;
36355;SDS011;22384;54.302;18.596;2022-12-07T04:38:28;10.23;;;6.38;;
36355;SDS011;22384;54.302;18.596;2022-12-07T04:40:54;10.13;;;6.13;;
36355;SDS011;22384;54.302;18.596;2022-12-07T04:43:20;10.02;;;6.07;;
36355;SDS011;22384;54.302;18.596;2022-12-07T04:45:47;10.65;;;6.20;;
36355;SDS011;22384;54.302;18.596;2022-12-07T04:48:13;9.48;;;5.68;;
36355;SDS011;22384;54.302;18.596;2022-12-07T04:50:39;10.70;;;5.75;;
36355;SDS011;22384;54.302;18.596;2022-12-07T04:53:05;11.30;;;6.30;;
36355;SDS011;22384;54.302;18.596;2022-12-07T04:55:31;10.38;;;5.70;;
36355;SDS011;22384;54.302;18.596;2022-12-07T04:57:58;9.35;;;6.00;;
36355;SDS011;22384;54.302;18.596;2022-12-07T05:00:24;9.32;;;5.95;;
36355;SDS011;22384;54.302;18.596;2022-12-07T05:02:50;10.13;;;6.10;;
36355;SDS011;22384;54.302;18.596;2022-12-07T05:05:23;9.13;;;5.50;;
36355;SDS011;22384;54.302;18.596;2022-12-07T05:07:49;12.70;;;6.28;;
36355;SDS011;22384;54.302;18.596;2022-12-07T05:10:16;12.40;;;6.35;;
36355;SDS011;22384;54.302;18.596;2022-12-07T05:12:42;11.98;;;6.25;;
36355;SDS011;22384;54.302;18.596;2022-12-07T05:15:08;11.60;;;7.13;;
36355;SDS011;22384;54.302;18.596;2022-12-07T05:17:35;15.38;;;8.30;;
36355;SDS011;22384;54.302;18.596;2022-12-07T05:20:01;12.70;;;8.55;;
36355;SDS011;22384;54.302;18.596;2022-12-07T05:22:27;12.45;;;8.50;;
36355;SDS011;22384;54.302;18.596;2022-12-07T05:24:57;9.55;;;6.55;;
36355;SDS011;22384;54.302;18.596;2022-12-07T05:27:23;12.05;;;6.90;;
36355;SDS011;22384;54.302;18.596;2022-12-07T05:29:53;9.45;;;6.28;;
36355;SDS011;22384;54.302;18.596;2022-12-07T05:32:19;10.02;;;6.97;;
36355;SDS011;22384;54.302;18.596;2022-12-07T05:34:45;11.52;;;6.80;;
36355;SDS011;22384;54.302;18.596;2022-12-07T05:37:11;11.98;;;7.10;;
36355;SDS011;22384;54.302;18.596;2022-12-07T05:39:37;11.20;;;7.25;;
36355;SDS011;22384;54.302;18.596;2022-12-07T05:42:07;9.57;;;5.45;;
36355;SDS011;22384;54.302;18.596;2022-12-07T05:44:40;9.90;;;6.47;;
36355;SDS011;22384;54.302;18.596;2022-12-07T05:47:06;9.45;;;6.47;;
36355;SDS011;22384;54.302;18.596;2022-12-07T05:49:32;12.35;;;5.80;;
36355;SDS011;22384;54.302;18.596;2022-12-07T05:51:59;9.35;;;6.22;;
36355;SDS011;22384;54.302;18.596;2022-12-07T05:54:26;10.60;;;6.65;;
36355;SDS011;22384;54.302;18.596;2022-12-07T05:56:52;8.88;;;6.00;;
36355;SDS011;22384;54.302;18.596;2022-12-07T05:59:18;9.73;;;6.38;;
36355;SDS011;22384;54.302;18.596;2022-12-07T06:01:47;8.35;;;5.22;;
36355;SDS011;22384;54.302;18.596;2022-12-07T06:04:14;7.88;;;5.45;;
36355;SDS011;22384;54.302;18.596;2022-12-07T06:06:41;8.25;;;5.45;;
36355;SDS011;22384;54.302;18.596;2022-12-07T06:09:07;6.53;;;5.20;;
36355;SDS011;22384;54.302;18.596;2022-12-07T06:11:33;7.45;;;5.00;;
36355;SDS011;22384;54.302;18.596;2022-12-07T06:14:18;7.95;;;4.15;;
36355;SDS011;22384;54.302;18.596;2022-12-07T06:16:44;6.32;;;3.75;;
36355;SDS011;22384;54.302;18.596;2022-12-07T06:19:11;5.13;;;3.28;;
36355;SDS011;22384;54.302;18.596;2022-12-07T06:21:38;5.15;;;2.97;;
36355;SDS011;22384;54.302;18.596;2022-12-07T06:24:04;4.28;;;2.00;;
36355;SDS011;22384;54.302;18.596;2022-12-07T06:26:31;4.85;;;2.40;;
36355;SDS011;22384;54.302;18.596;2022-12-07T06:28:57;2.53;;;1.73;;
36355;SDS011;22384;54.302;18.596;2022-12-07T06:31:23;2.17;;;1.60;;
36355;SDS011;22384;54.302;18.596;2022-12-07T06:33:50;2.63;;;1.90;;
36355;SDS011;22384;54.302;18.596;2022-12-07T06:36:16;6.00;;;1.92;;
36355;SDS011;22384;54.302;18.596;2022-12-07T06:38:43;3.05;;;1.40;;
36355;SDS011;22384;54.302;18.596;2022-12-07T06:41:10;7.65;;;1.80;;
36355;SDS011;22384;54.302;18.596;2022-12-07T06:43:36;1.60;;;1.30;;
36355;SDS011;22384;54.302;18.596;2022-12-07T06:46:03;5.75;;;1.90;;
36355;SDS011;22384;54.302;18.596;2022-12-07T06:48:29;5.00;;;2.10;;
36355;SDS011;22384;54.302;18.596;2022-12-07T06:51:01;6.10;;;2.28;;
36355;SDS011;22384;54.302;18.596;2022-12-07T06:53:34;4.63;;;2.25;;
36355;SDS011;22384;54.302;18.596;2022-12-07T06:56:02;2.88;;;2.10;;
36355;SDS011;22384;54.302;18.596;2022-12-07T06:58:29;13.10;;;3.33;;
36355;SDS011;22384;54.302;18.596;2022-12-07T07:00:55;10.13;;;4.57;;
36355;SDS011;22384;54.302;18.596;2022-12-07T07:03:21;7.22;;;3.97;;
36355;SDS011;22384;54.302;18.596;2022-12-07T07:05:47;8.93;;;4.13;;
36355;SDS011;22384;54.302;18.596;2022-12-07T07:08:14;4.88;;;3.08;;
36355;SDS011;22384;54.302;18.596;2022-12-07T07:10:40;6.90;;;3.45;;
36355;SDS011;22384;54.302;18.596;2022-12-07T07:13:07;5.53;;;2.95;;
36355;SDS011;22384;54.302;18.596;2022-12-07T07:15:34;5.95;;;3.17;;
36355;SDS011;22384;54.302;18.596;2022-12-07T07:18:01;6.72;;;3.17;;
36355;SDS011;22384;54.302;18.596;2022-12-07T07:20:29;6.07;;;3.17;;
36355;SDS011;22384;54.302;18.596;2022-12-07T07:22:56;6.15;;;3.15;;
36355;SDS011;22384;54.302;18.596;2022-12-07T07:25:24;7.75;;;3.65;;
36355;SDS011;22384;54.302;18.596;2022-12-07T07:27:51;5.97;;;3.60;;
36355;SDS011;22384;54.302;18.596;2022-12-07T07:30:17;6.65;;;3.58;;
36355;SDS011;22384;54.302;18.596;2022-12-07T07:32:43;6.75;;;3.92;;
36355;SDS011;22384;54.302;18.596;2022-12-07T07:35:09;6.80;;;4.30;;
36355;SDS011;22384;54.302;18.596;2022-12-07T07:37:36;7.78;;;4.85;;
36355;SDS011;22384;54.302;18.596;2022-12-07T07:40:02;11.13;;;5.57;;
36355;SDS011;22384;54.302;18.596;2022-12-07T07:42:29;6.90;;;4.63;;
36355;SDS011;22384;54.302;18.596;2022-12-07T07:44:56;7.05;;;5.15;;
36355;SDS011;22384;54.302;18.596;2022-12-07T07:47:22;11.00;;;5.32;;
36355;SDS011;22384;54.302;18.596;2022-12-07T07:49:48;10.63;;;5.70;;
36355;SDS011;22384;54.302;18.596;2022-12-07T07:52:14;12.52;;;7.78;;
36355;SDS011;22384;54.302;18.596;2022-12-07T07:54:40;9.55;;;6.32;;
36355;SDS011;22384;54.302;18.596;2022-12-07T07:57:06;10.52;;;5.65;;
36355;SDS011;22384;54.302;18.596;2022-12-07T07:59:32;10.43;;;5.32;;
36355;SDS011;22384;54.302;18.596;2022-12-07T08:01:59;8.70;;;5.57;;
36355;SDS011;22384;54.302;18.596;2022-12-07T08:04:25;7.25;;;5.28;;
36355;SDS011;22384;54.302;18.596;2022-12-07T08:06:52;8.38;;;5.93;;
36355;SDS011;22384;54.302;18.596;2022-12-07T08:09:18;10.75;;;6.35;;
36355;SDS011;22384;54.302;18.596;2022-12-07T08:11:45;9.38;;;6.80;;
36355;SDS011;22384;54.302;18.596;2022-12-07T08:14:13;9.95;;;6.00;;
36355;SDS011;22384;54.302;18.596;2022-12-07T08:16:39;9.65;;;6.50;;
36355;SDS011;22384;54.302;18.596;2022-12-07T08:19:05;10.93;;;6.28;;
36355;SDS011;22384;54.302;18.596;2022-12-07T08:21:32;9.77;;;5.65;;
36355;SDS011;22384;54.302;18.596;2022-12-07T08:23:59;9.63;;;6.43;;
36355;SDS011;22384;54.302;18.596;2022-12-07T08:26:25;10.20;;;5.82;;
36355;SDS011;22384;54.302;18.596;2022-12-07T08:28:52;11.30;;;6.75;;
36355;SDS011;22384;54.302;18.596;2022-12-07T08:31:18;9.30;;;6.07;;
36355;SDS011;22384;54.302;18.596;2022-12-07T08:33:45;11.85;;;5.47;;
36355;SDS011;22384;54.302;18.596;2022-12-07T08:36:13;7.82;;;5.60;;
36355;SDS011;22384;54.302;18.596;2022-12-07T08:38:54;8.15;;;6.20;;
36355;SDS011;22384;54.302;18.596;2022-12-07T08:41:29;10.60;;;6.75;;
36355;SDS011;22384;54.302;18.596;2022-12-07T08:43:56;9.07;;;6.05;;
36355;SDS011;22384;54.302;18.596;2022-12-07T08:48:52;9.60;;;6.32;;
36355;SDS011;22384;54.302;18.596;2022-12-07T08:51:20;9.60;;;6.07;;
36355;SDS011;22384;54.302;18.596;2022-12-07T08:53:47;11.95;;;6.85;;
36355;SDS011;22384;54.302;18.596;2022-12-07T08:56:14;13.68;;;6.53;;
36355;SDS011;22384;54.302;18.596;2022-12-07T08:58:40;6.82;;;4.50;;
36355;SDS011;22384;54.302;18.596;2022-12-07T09:01:06;9.35;;;5.65;;
36355;SDS011;22384;54.302;18.596;2022-12-07T09:03:32;8.55;;;5.28;;
36355;SDS011;22384;54.302;18.596;2022-12-07T09:05:59;6.57;;;5.03;;
36355;SDS011;22384;54.302;18.596;2022-12-07T09:08:29;8.73;;;4.90;;
36355;SDS011;22384;54.302;18.596;2022-12-07T09:10:57;7.22;;;4.55;;
36355;SDS011;22384;54.302;18.596;2022-12-07T09:13:23;6.57;;;4.65;;
36355;SDS011;22384;54.302;18.596;2022-12-07T09:15:49;7.55;;;5.10;;
36355;SDS011;22384;54.302;18.596;2022-12-07T09:18:15;7.28;;;4.32;;
36355;SDS011;22384;54.302;18.596;2022-12-07T09:20:41;9.98;;;4.88;;
36355;SDS011;22384;54.302;18.596;2022-12-07T09:23:07;6.55;;;4.53;;
36355;SDS011;22384;54.302;18.596;2022-12-07T09:25:34;7.75;;;4.80;;
36355;SDS011;22384;54.302;18.596;2022-12-07T09:28:00;7.03;;;4.80;;
36355;SDS011;22384;54.302;18.596;2022-12-07T09:30:26;10.05;;;4.70;;
36355;SDS011;22384;54.302;18.596;2022-12-07T09:32:55;10.43;;;5.53;;
36355;SDS011;22384;54.302;18.596;2022-12-07T09:35:22;11.25;;;5.97;;
36355;SDS011;22384;54.302;18.596;2022-12-07T09:37:48;16.23;;;7.10;;
36355;SDS011;22384;54.302;18.596;2022-12-07T09:40:16;11.40;;;7.38;;
36355;SDS011;22384;54.302;18.596;2022-12-07T09:42:47;10.15;;;6.80;;
36355;SDS011;22384;54.302;18.596;2022-12-07T09:45:15;10.55;;;6.45;;
36355;SDS011;22384;54.302;18.596;2022-12-07T09:47:42;9.38;;;6.13;;
36355;SDS011;22384;54.302;18.596;2022-12-07T09:50:24;10.73;;;6.65;;
36355;SDS011;22384;54.302;18.596;2022-12-07T09:52:51;12.45;;;6.50;;
36355;SDS011;22384;54.302;18.596;2022-12-07T09:55:28;7.78;;;5.57;;
36355;SDS011;22384;54.302;18.596;2022-12-07T09:57:54;8.68;;;5.30;;
36355;SDS011;22384;54.302;18.596;2022-12-07T10:00:21;11.15;;;5.53;;
36355;SDS011;22384;54.302;18.596;2022-12-07T10:02:58;9.13;;;5.93;;
36355;SDS011;22384;54.302;18.596;2022-12-07T10:05:26;7.90;;;5.70;;
36355;SDS011;22384;54.302;18.596;2022-12-07T10:07:53;10.73;;;5.97;;
36355;SDS011;22384;54.302;18.596;2022-12-07T10:10:23;9.05;;;5.40;;
36355;SDS011;22384;54.302;18.596;2022-12-07T10:12:55;11.57;;;6.97;;
36355;SDS011;22384;54.302;18.596;2022-12-07T10:15:22;13.00;;;5.00;;
36355;SDS011;22384;54.302;18.596;2022-12-07T10:17:49;6.40;;;4.63;;
36355;SDS011;22384;54.302;18.596;2022-12-07T10:20:19;9.52;;;5.40;;
36355;SDS011;22384;54.302;18.596;2022-12-07T10:25:32;8.32;;;5.22;;
36355;SDS011;22384;54.302;18.596;2022-12-07T10:30:27;7.60;;;4.85;;
36355;SDS011;22384;54.302;18.596;2022-12-07T10:32:54;6.80;;;4.65;;
36355;SDS011;22384;54.302;18.596;2022-12-07T10:35:31;7.03;;;4.88;;
36355;SDS011;22384;54.302;18.596;2022-12-07T10:37:59;10.38;;;5.25;;
36355;SDS011;22384;54.302;18.596;2022-12-07T10:48:19;9.95;;;5.30;;
36355;SDS011;22384;54.302;18.596;2022-12-07T10:51:07;8.48;;;5.35;;
36355;SDS011;22384;54.302;18.596;2022-12-07T11:01:27;10.88;;;3.95;;
36355;SDS011;22384;54.302;18.596;2022-12-07T11:14:56;6.65;;;3.70;;
36355;SDS011;22384;54.302;18.596;2022-12-07T11:17:26;5.55;;;3.72;;
36355;SDS011;22384;54.302;18.596;2022-12-07T11:28:14;6.68;;;4.18;;
36355;SDS011;22384;54.302;18.596;2022-12-07T11:38:46;6.75;;;4.85;;
36355;SDS011;22384;54.302;18.596;2022-12-07T11:41:14;8.40;;;5.28;;
36355;SDS011;22384;54.302;18.596;2022-12-07T11:46:50;6.07;;;4.43;;
36355;SDS011;22384;54.302;18.596;2022-12-07T11:51:48;7.78;;;5.53;;
36355;SDS011;22384;54.302;18.596;2022-12-07T11:54:26;9.02;;;5.00;;
36355;SDS011;22384;54.302;18.596;2022-12-07T11:57:01;11.50;;;5.18;;
36355;SDS011;22384;54.302;18.596;2022-12-07T11:59:36;9.93;;;4.95;;
36355;SDS011;22384;54.302;18.596;2022-12-07T12:04:58;7.28;;;4.03;;
36355;SDS011;22384;54.302;18.596;2022-12-07T12:07:26;5.55;;;4.40;;
36355;SDS011;22384;54.302;18.596;2022-12-07T12:12:29;7.15;;;4.70;;
36355;SDS011;22384;54.302;18.596;2022-12-07T12:20:32;8.48;;;5.05;;
36355;SDS011;22384;54.302;18.596;2022-12-07T12:23:06;7.45;;;4.85;;
36355;SDS011;22384;54.302;18.596;2022-12-07T12:25:46;14.85;;;5.60;;
36355;SDS011;22384;54.302;18.596;2022-12-07T12:31:04;10.82;;;6.25;;
36355;SDS011;22384;54.302;18.596;2022-12-07T12:46:52;11.32;;;5.82;;
36355;SDS011;22384;54.302;18.596;2022-12-07T12:52:00;14.68;;;7.22;;
36355;SDS011;22384;54.302;18.596;2022-12-07T12:54:37;11.35;;;6.35;;
36355;SDS011;22384;54.302;18.596;2022-12-07T13:15:46;12.95;;;7.15;;
36355;SDS011;22384;54.302;18.596;2022-12-07T13:23:22;11.57;;;5.60;;
36355;SDS011;22384;54.302;18.596;2022-12-07T13:28:37;15.10;;;6.35;;
36355;SDS011;22384;54.302;18.596;2022-12-07T13:31:13;17.67;;;6.60;;
36355;SDS011;22384;54.302;18.596;2022-12-07T13:33:42;15.57;;;6.95;;
36355;SDS011;22384;54.302;18.596;2022-12-07T13:36:21;13.02;;;5.65;;
36355;SDS011;22384;54.302;18.596;2022-12-07T13:38:52;16.05;;;7.53;;
36355;SDS011;22384;54.302;18.596;2022-12-07T13:41:20;14.07;;;7.45;;
36355;SDS011;22384;54.302;18.596;2022-12-07T13:43:53;15.90;;;7.85;;
36355;SDS011;22384;54.302;18.596;2022-12-07T13:46:24;16.10;;;6.70;;
36355;SDS011;22384;54.302;18.596;2022-12-07T13:48:51;12.68;;;6.38;;
36355;SDS011;22384;54.302;18.596;2022-12-07T13:53:46;14.23;;;5.57;;
36355;SDS011;22384;54.302;18.596;2022-12-07T13:56:15;14.90;;;6.80;;
36355;SDS011;22384;54.302;18.596;2022-12-07T13:58:43;13.57;;;6.03;;
36355;SDS011;22384;54.302;18.596;2022-12-07T14:01:09;13.30;;;6.30;;
36355;SDS011;22384;54.302;18.596;2022-12-07T14:03:48;12.75;;;6.88;;
36355;SDS011;22384;54.302;18.596;2022-12-07T14:06:23;12.15;;;5.75;;
36355;SDS011;22384;54.302;18.596;2022-12-07T14:09:07;9.73;;;5.07;;
36355;SDS011;22384;54.302;18.596;2022-12-07T14:11:35;10.95;;;5.32;;
36355;SDS011;22384;54.302;18.596;2022-12-07T14:14:04;11.50;;;6.13;;
36355;SDS011;22384;54.302;18.596;2022-12-07T14:16:40;10.02;;;5.13;;
36355;SDS011;22384;54.302;18.596;2022-12-07T14:19:39;11.75;;;6.30;;
36355;SDS011;22384;54.302;18.596;2022-12-07T14:22:05;8.75;;;4.93;;
36355;SDS011;22384;54.302;18.596;2022-12-07T14:24:41;11.27;;;5.10;;
36355;SDS011;22384;54.302;18.596;2022-12-07T14:27:16;12.30;;;5.35;;
36355;SDS011;22384;54.302;18.596;2022-12-07T14:29:42;16.05;;;6.25;;
36355;SDS011;22384;54.302;18.596;2022-12-07T14:32:17;15.07;;;6.78;;
36355;SDS011;22384;54.302;18.596;2022-12-07T14:35:02;30.17;;;15.52;;
36355;SDS011;22384;54.302;18.596;2022-12-07T14:37:29;20.60;;;8.18;;
36355;SDS011;22384;54.302;18.596;2022-12-07T14:39:56;11.38;;;6.18;;
36355;SDS011;22384;54.302;18.596;2022-12-07T14:42:23;23.23;;;8.55;;
36355;SDS011;22384;54.302;18.596;2022-12-07T14:44:50;10.55;;;4.93;;
36355;SDS011;22384;54.302;18.596;2022-12-07T14:47:16;12.73;;;5.22;;
36355;SDS011;22384;54.302;18.596;2022-12-07T14:49:42;12.20;;;5.38;;
36355;SDS011;22384;54.302;18.596;2022-12-07T14:52:15;10.20;;;4.65;;
36355;SDS011;22384;54.302;18.596;2022-12-07T14:54:42;15.02;;;6.22;;
36355;SDS011;22384;54.302;18.596;2022-12-07T14:57:09;11.95;;;5.20;;
36355;SDS011;22384;54.302;18.596;2022-12-07T14:59:37;15.35;;;6.00;;
36355;SDS011;22384;54.302;18.596;2022-12-07T15:02:04;7.63;;;4.55;;
36355;SDS011;22384;54.302;18.596;2022-12-07T15:04:30;10.85;;;4.13;;
36355;SDS011;22384;54.302;18.596;2022-12-07T15:06:57;9.73;;;4.13;;
36355;SDS011;22384;54.302;18.596;2022-12-07T15:09:23;7.10;;;4.30;;
36355;SDS011;22384;54.302;18.596;2022-12-07T15:11:52;10.52;;;4.72;;
36355;SDS011;22384;54.302;18.596;2022-12-07T15:14:20;7.65;;;4.20;;
36355;SDS011;22384;54.302;18.596;2022-12-07T15:16:46;10.38;;;4.80;;
36355;SDS011;22384;54.302;18.596;2022-12-07T15:19:19;4.80;;;3.50;;
36355;SDS011;22384;54.302;18.596;2022-12-07T15:21:59;5.65;;;3.63;;
36355;SDS011;22384;54.302;18.596;2022-12-07T15:24:25;11.75;;;3.83;;
36355;SDS011;22384;54.302;18.596;2022-12-07T15:26:51;6.60;;;3.60;;
36355;SDS011;22384;54.302;18.596;2022-12-07T15:29:18;5.95;;;3.45;;
36355;SDS011;22384;54.302;18.596;2022-12-07T15:31:57;6.70;;;3.80;;
36355;SDS011;22384;54.302;18.596;2022-12-07T15:34:31;7.15;;;3.75;;
36355;SDS011;22384;54.302;18.596;2022-12-07T15:37:04;9.25;;;3.83;;
36355;SDS011;22384;54.302;18.596;2022-12-07T15:39:31;12.18;;;3.80;;
36355;SDS011;22384;54.302;18.596;2022-12-07T15:41:58;9.55;;;4.45;;
36355;SDS011;22384;54.302;18.596;2022-12-07T15:44:24;7.20;;;4.28;;
36355;SDS011;22384;54.302;18.596;2022-12-07T15:47:10;7.55;;;3.90;;
36355;SDS011;22384;54.302;18.596;2022-12-07T15:49:43;7.90;;;4.38;;
36355;SDS011;22384;54.302;18.596;2022-12-07T15:52:17;9.68;;;3.97;;
36355;SDS011;22384;54.302;18.596;2022-12-07T15:54:44;12.20;;;4.40;;
36355;SDS011;22384;54.302;18.596;2022-12-07T15:57:13;7.50;;;4.15;;
36355;SDS011;22384;54.302;18.596;2022-12-07T15:59:46;13.45;;;4.45;;
36355;SDS011;22384;54.302;18.596;2022-12-07T16:02:12;8.90;;;4.18;;
36355;SDS011;22384;54.302;18.596;2022-12-07T16:04:40;11.15;;;4.72;;
36355;SDS011;22384;54.302;18.596;2022-12-07T16:07:06;11.13;;;4.82;;
36355;SDS011;22384;54.302;18.596;2022-12-07T16:09:32;9.13;;;3.75;;
36355;SDS011;22384;54.302;18.596;2022-12-07T16:12:04;7.07;;;3.92;;
36355;SDS011;22384;54.302;18.596;2022-12-07T16:14:37;11.77;;;3.90;;
36355;SDS011;22384;54.302;18.596;2022-12-07T16:17:05;8.15;;;3.58;;
36355;SDS011;22384;54.302;18.596;2022-12-07T16:19:38;10.27;;;3.95;;
36355;SDS011;22384;54.302;18.596;2022-12-07T16:22:05;6.47;;;3.45;;
36355;SDS011;22384;54.302;18.596;2022-12-07T16:24:32;5.15;;;2.70;;
36355;SDS011;22384;54.302;18.596;2022-12-07T16:26:58;5.35;;;3.35;;
36355;SDS011;22384;54.302;18.596;2022-12-07T16:29:26;5.28;;;3.13;;
36355;SDS011;22384;54.302;18.596;2022-12-07T16:31:54;4.00;;;2.70;;
36355;SDS011;22384;54.302;18.596;2022-12-07T16:34:20;6.25;;;3.40;;
36355;SDS011;22384;54.302;18.596;2022-12-07T16:36:49;6.93;;;3.10;;
36355;SDS011;22384;54.302;18.596;2022-12-07T16:39:15;6.03;;;3.08;;
36355;SDS011;22384;54.302;18.596;2022-12-07T16:41:53;5.78;;;3.28;;
36355;SDS011;22384;54.302;18.596;2022-12-07T16:44:19;5.55;;;3.13;;
36355;SDS011;22384;54.302;18.596;2022-12-07T16:46:46;7.03;;;2.88;;
36355;SDS011;22384;54.302;18.596;2022-12-07T16:49:18;5.85;;;3.15;;
36355;SDS011;22384;54.302;18.596;2022-12-07T16:51:52;5.55;;;2.80;;
36355;SDS011;22384;54.302;18.596;2022-12-07T16:54:19;6.07;;;3.35;;
36355;SDS011;22384;54.302;18.596;2022-12-07T16:56:46;10.07;;;4.20;;
36355;SDS011;22384;54.302;18.596;2022-12-07T16:59:18;4.90;;;3.42;;
36355;SDS011;22384;54.302;18.596;2022-12-07T17:02:10;8.73;;;3.63;;